createdAt,value
2022-10-04T00:01:01.614Z,5.60
2022-10-04T00:03:33.890Z,5.60
2022-10-04T00:06:03.623Z,5.60
2022-10-04T00:08:42.032Z,5.60
2022-10-04T00:11:16.677Z,5.60
2022-10-04T00:13:50.389Z,5.60
2022-10-04T00:16:29.857Z,5.60
2022-10-04T00:19:41.946Z,5.50
2022-10-04T00:22:17.342Z,5.50
2022-10-04T00:25:22.529Z,5.40
2022-10-04T00:28:24.462Z,5.40
2022-10-04T00:31:25.642Z,5.30
2022-10-04T00:33:56.226Z,5.20
2022-10-04T00:36:47.282Z,5.20
2022-10-04T00:39:18.388Z,5.10
2022-10-04T00:41:58.373Z,5.00
2022-10-04T00:44:34.287Z,5.00
2022-10-04T00:47:14.172Z,5.00
2022-10-04T00:49:46.850Z,4.90
2022-10-04T00:52:44.112Z,4.90
2022-10-04T00:55:19.465Z,4.80
2022-10-04T00:57:50.452Z,4.70
2022-10-04T01:00:22.547Z,4.70
2022-10-04T01:02:57.884Z,4.70
2022-10-04T01:05:29.200Z,4.60
2022-10-04T01:08:07.465Z,4.60
2022-10-04T01:10:41.880Z,4.60
2022-10-04T01:13:14.144Z,4.60
2022-10-04T01:15:46.394Z,4.60
2022-10-04T01:18:28.278Z,4.60
2022-10-04T01:20:59.868Z,4.60
2022-10-04T01:23:41.662Z,4.60
2022-10-04T01:26:42.505Z,4.60
2022-10-04T01:29:15.296Z,4.70
2022-10-04T01:31:46.467Z,4.70
2022-10-04T01:34:17.071Z,4.70
2022-10-04T01:36:46.162Z,4.70
2022-10-04T01:39:16.879Z,4.70
2022-10-04T01:41:49.812Z,4.80
2022-10-04T01:44:27.331Z,4.70
2022-10-04T01:46:59.451Z,4.70
2022-10-04T01:49:32.406Z,4.60
2022-10-04T01:52:06.300Z,4.70
2022-10-04T01:54:39.429Z,4.70
2022-10-04T01:57:15.117Z,4.60
2022-10-04T01:59:47.662Z,4.60
2022-10-04T02:02:25.927Z,4.60
2022-10-04T02:04:56.988Z,4.70
2022-10-04T02:07:26.572Z,4.70
2022-10-04T02:10:00.487Z,4.60
2022-10-04T02:12:31.430Z,4.60
2022-10-04T02:15:02.303Z,4.60
2022-10-04T02:17:33.167Z,4.60
2022-10-04T02:20:03.021Z,4.60
2022-10-04T02:22:31.824Z,4.60
2022-10-04T02:25:01.857Z,4.60
2022-10-04T02:27:31.587Z,4.60
2022-10-04T02:30:04.814Z,4.50
2022-10-04T02:32:52.162Z,4.50
2022-10-04T02:35:21.388Z,4.50
2022-10-04T02:37:55.461Z,4.40
2022-10-04T02:40:34.821Z,4.40
2022-10-04T02:43:08.946Z,4.40
2022-10-04T02:45:44.194Z,4.40
2022-10-04T02:48:31.067Z,4.40
2022-10-04T02:51:08.240Z,4.40
2022-10-04T02:53:50.497Z,4.30
2022-10-04T02:56:22.248Z,4.30
2022-10-04T02:58:50.483Z,4.30
2022-10-04T03:01:27.478Z,4.30
2022-10-04T03:03:57.617Z,4.30
2022-10-04T03:06:32.301Z,4.30
2022-10-04T03:09:03.290Z,4.30
2022-10-04T03:11:36.586Z,4.40
2022-10-04T03:14:09.140Z,4.40
2022-10-04T03:16:40.133Z,4.50
2022-10-04T03:19:09.992Z,4.50
2022-10-04T03:21:40.679Z,4.50
2022-10-04T03:24:11.278Z,4.60
2022-10-04T03:26:45.416Z,4.60
2022-10-04T03:29:17.320Z,4.70
2022-10-04T03:31:47.615Z,4.80
2022-10-04T03:34:18.105Z,4.80
2022-10-04T03:36:49.213Z,4.90
2022-10-04T03:39:32.757Z,4.90
2022-10-04T03:42:05.993Z,5.00
2022-10-04T03:44:34.837Z,5.10
2022-10-04T03:47:08.247Z,5.10
2022-10-04T03:49:38.857Z,5.20
2022-10-04T03:52:09.001Z,5.20
2022-10-04T03:54:37.658Z,5.30
2022-10-04T03:57:07.613Z,5.30
2022-10-04T03:59:37.483Z,5.40
2022-10-04T04:02:13.432Z,5.40
2022-10-04T04:04:45.921Z,5.50
2022-10-04T04:07:19.926Z,5.50
2022-10-04T04:09:53.124Z,5.50
2022-10-04T04:15:31.249Z,5.60
2022-10-04T04:18:02.839Z,5.70
2022-10-04T04:20:34.310Z,5.70
2022-10-04T04:23:06.349Z,5.70
2022-10-04T04:25:38.402Z,5.80
2022-10-04T04:28:15.513Z,5.80
2022-10-04T04:30:48.263Z,5.80
2022-10-04T04:33:23.100Z,5.80
2022-10-04T04:35:56.454Z,5.90
2022-10-04T04:38:25.637Z,5.90
2022-10-04T04:40:55.696Z,5.90
2022-10-04T04:43:28.614Z,6.00
2022-10-04T04:46:22.257Z,6.00
2022-10-04T04:48:48.091Z,6.00
2022-10-04T04:51:21.769Z,6.00
2022-10-04T04:53:51.155Z,6.10
2022-10-04T04:56:21.832Z,6.10
2022-10-04T04:58:53.122Z,6.10
2022-10-04T05:01:25.144Z,6.10
2022-10-04T05:04:04.682Z,6.10
2022-10-04T05:06:34.190Z,6.10
2022-10-04T05:09:02.881Z,6.20
2022-10-04T05:11:33.751Z,6.20
2022-10-04T05:14:07.306Z,6.20
2022-10-04T05:16:41.540Z,6.20
2022-10-04T05:19:15.880Z,6.30
2022-10-04T05:21:46.813Z,6.30
2022-10-04T05:24:22.471Z,6.30
2022-10-04T05:26:52.316Z,6.30
2022-10-04T05:29:25.914Z,6.40
2022-10-04T05:32:04.224Z,6.40
2022-10-04T05:34:39.379Z,6.50
2022-10-04T05:37:30.307Z,6.50
2022-10-04T05:40:17.299Z,6.50
2022-10-04T05:42:46.852Z,6.50
2022-10-04T05:45:19.917Z,6.60
2022-10-04T05:47:51.255Z,6.60
2022-10-04T05:50:21.837Z,6.60
2022-10-04T05:52:52.482Z,6.70
2022-10-04T05:55:28.584Z,6.70
2022-10-04T05:58:18.320Z,6.70
2022-10-04T06:01:13.829Z,6.80
2022-10-04T06:03:58.246Z,6.80
2022-10-04T06:06:35.155Z,6.80
2022-10-04T06:09:16.091Z,6.90
2022-10-04T06:12:01.137Z,6.90
2022-10-04T06:14:46.439Z,6.90
2022-10-04T06:17:40.667Z,6.90
2022-10-04T06:20:34.394Z,7.00
2022-10-04T06:23:07.853Z,7.00
2022-10-04T06:25:41.508Z,7.00
2022-10-04T06:28:19.600Z,7.10
2022-10-04T06:31:11.341Z,7.20
2022-10-04T06:33:55.269Z,7.20
2022-10-04T06:36:39.009Z,7.20
2022-10-04T06:39:21.347Z,7.30
2022-10-04T06:42:19.684Z,7.30
2022-10-04T06:45:06.097Z,7.40
2022-10-04T06:47:51.633Z,7.40
2022-10-04T06:50:29.767Z,7.50
2022-10-04T06:53:19.162Z,7.50
2022-10-04T06:56:16.084Z,7.60
2022-10-04T06:59:21.207Z,7.70
2022-10-04T07:01:52.651Z,7.80
2022-10-04T07:04:55.849Z,7.90
2022-10-04T07:07:35.441Z,8.00
2022-10-04T07:10:22.828Z,8.00
2022-10-04T07:12:59.965Z,8.10
2022-10-04T07:15:33.173Z,8.10
2022-10-04T07:18:07.190Z,8.10
2022-10-04T07:20:36.830Z,8.10
2022-10-04T07:23:09.976Z,8.20
2022-10-04T07:25:45.817Z,8.20
2022-10-04T07:28:36.023Z,8.30
2022-10-04T07:31:06.794Z,8.30
2022-10-04T07:33:43.450Z,8.40
2022-10-04T07:36:13.757Z,8.40
2022-10-04T07:38:49.849Z,8.40
2022-10-04T07:41:21.913Z,8.50
2022-10-04T07:43:56.110Z,8.40
2022-10-04T07:46:43.783Z,8.50
2022-10-04T07:49:16.439Z,8.50
2022-10-04T07:52:08.902Z,8.50
2022-10-04T07:54:45.255Z,8.60
2022-10-04T07:57:23.555Z,8.70
2022-10-04T08:00:01.269Z,8.80
2022-10-04T08:02:50.604Z,8.90
2022-10-04T08:05:24.368Z,9.00
2022-10-04T08:08:32.591Z,9.00
2022-10-04T08:11:17.326Z,9.10
2022-10-04T08:13:58.067Z,9.10
2022-10-04T08:16:37.037Z,9.20
2022-10-04T08:19:33.292Z,9.20
2022-10-04T08:22:07.685Z,9.30
2022-10-04T08:24:47.971Z,9.30
2022-10-04T08:27:40.433Z,9.30
2022-10-04T08:30:14.944Z,9.40
2022-10-04T08:33:01.693Z,9.40
2022-10-04T08:35:33.345Z,9.50
2022-10-04T08:38:25.468Z,9.50
2022-10-04T08:41:18.368Z,9.60
2022-10-04T08:44:13.252Z,9.60
2022-10-04T08:47:18.750Z,9.60
2022-10-04T08:50:22.790Z,9.60
2022-10-04T08:53:10.778Z,9.70
2022-10-04T08:55:51.750Z,9.80
2022-10-04T08:58:49.573Z,9.90
2022-10-04T09:01:39.779Z,10.10
2022-10-04T09:05:11.326Z,10.20
2022-10-04T09:08:17.380Z,10.40
2022-10-04T09:10:59.833Z,10.50
2022-10-04T09:13:41.258Z,10.60
2022-10-04T09:16:20.068Z,10.70
2022-10-04T09:19:14.304Z,10.80
2022-10-04T09:22:01.193Z,11.00
2022-10-04T09:24:58.609Z,11.00
2022-10-04T09:27:54.894Z,11.10
2022-10-04T09:30:31.082Z,11.10
2022-10-04T09:33:37.654Z,11.20
2022-10-04T09:36:28.574Z,11.40
2022-10-04T09:39:29.413Z,11.50
2022-10-04T09:42:29.274Z,11.70
2022-10-04T09:45:18.001Z,11.80
2022-10-04T09:47:48.518Z,11.80
2022-10-04T09:50:37.250Z,11.90
2022-10-04T09:53:25.267Z,11.80
2022-10-04T09:56:10.072Z,11.90
2022-10-04T09:59:03.899Z,11.90
2022-10-04T10:01:41.106Z,12.10
2022-10-04T10:04:35.444Z,12.20
2022-10-04T10:07:19.478Z,12.30
2022-10-04T10:10:31.332Z,12.40
2022-10-04T10:13:35.267Z,12.40
2022-10-04T10:16:12.244Z,12.50
2022-10-04T10:19:17.888Z,12.60
2022-10-04T10:21:56.324Z,12.60
2022-10-04T10:24:44.490Z,12.40
2022-10-04T10:27:43.072Z,12.30
2022-10-04T10:30:25.679Z,12.40
2022-10-04T10:33:46.881Z,12.40
2022-10-04T10:36:44.972Z,12.50
2022-10-04T10:39:38.843Z,12.50
2022-10-04T10:42:27.262Z,12.50
2022-10-04T10:45:23.943Z,12.40
2022-10-04T10:47:59.760Z,12.50
2022-10-04T10:50:59.422Z,12.60
2022-10-04T10:54:15.976Z,12.70
2022-10-04T10:56:47.809Z,12.90
2022-10-04T11:00:05.717Z,13.00
2022-10-04T11:03:31.126Z,13.10
2022-10-04T11:06:35.824Z,13.10
2022-10-04T11:09:34.961Z,13.20
2022-10-04T11:12:25.548Z,13.30
2022-10-04T11:15:34.278Z,13.40
2022-10-04T11:18:40.841Z,13.50
2022-10-04T11:21:28.897Z,13.60
2022-10-04T11:24:29.846Z,13.70
2022-10-04T11:27:28.365Z,13.70
2022-10-04T11:30:09.618Z,13.80
2022-10-04T11:33:10.201Z,13.90
2022-10-04T11:36:08.192Z,14.00
2022-10-04T11:38:53.364Z,14.10
2022-10-04T11:41:30.866Z,14.10
2022-10-04T11:44:29.381Z,14.00
2022-10-04T11:47:03.555Z,14.00
2022-10-04T11:49:56.563Z,14.00
2022-10-04T11:52:49.939Z,14.10
2022-10-04T11:55:43.168Z,14.20
2022-10-04T11:58:18.395Z,14.30
2022-10-04T12:01:21.425Z,14.30
2022-10-04T12:04:09.605Z,14.30
2022-10-04T12:06:51.687Z,14.30
2022-10-04T12:09:29.698Z,14.10
2022-10-04T12:12:39.904Z,14.20
2022-10-04T12:15:41.472Z,14.20
2022-10-04T12:18:34.433Z,14.30
2022-10-04T12:21:31.550Z,14.40
2022-10-04T12:24:16.090Z,14.40
2022-10-04T12:27:10.488Z,14.40
2022-10-04T12:30:23.886Z,14.40
2022-10-04T12:33:03.504Z,14.50
2022-10-04T12:35:43.198Z,14.50
2022-10-04T12:38:29.244Z,14.50
2022-10-04T12:41:12.065Z,14.50
2022-10-04T12:43:51.030Z,14.50
2022-10-04T12:46:31.499Z,14.60
2022-10-04T12:49:16.819Z,14.60
2022-10-04T12:51:56.343Z,14.60
2022-10-04T12:54:39.152Z,14.70
2022-10-04T12:57:34.557Z,14.80
2022-10-04T13:00:14.269Z,14.80
2022-10-04T13:03:11.944Z,14.90
2022-10-04T13:05:53.641Z,15.00
2022-10-04T13:08:32.534Z,15.00
2022-10-04T13:11:29.362Z,15.10
2022-10-04T13:14:26.881Z,15.20
2022-10-04T13:19:57.659Z,15.40
2022-10-04T13:22:56.467Z,15.50
2022-10-04T13:25:46.353Z,15.70
2022-10-04T13:28:24.538Z,16.00
2022-10-04T13:31:01.529Z,16.50
2022-10-04T13:33:37.507Z,16.90
2022-10-04T13:36:07.561Z,17.30
2022-10-04T13:38:54.646Z,17.70
2022-10-04T13:41:33.928Z,18.00
2022-10-04T13:44:21.639Z,18.50
2022-10-04T13:47:07.623Z,18.60
2022-10-04T13:49:52.571Z,18.90
2022-10-04T13:52:56.189Z,19.00
2022-10-04T13:55:50.591Z,19.20
2022-10-04T13:58:35.533Z,19.50
2022-10-04T14:01:36.810Z,19.70
2022-10-04T14:04:21.110Z,19.90
2022-10-04T14:07:24.814Z,19.90
2022-10-04T14:10:03.224Z,20.10
2022-10-04T14:12:54.590Z,20.50
2022-10-04T14:16:01.349Z,20.90
2022-10-04T14:19:08.734Z,21.20
2022-10-04T14:22:07.378Z,21.30
2022-10-04T14:25:21.666Z,21.40
2022-10-04T14:28:22.311Z,21.60
2022-10-04T14:31:04.294Z,21.80
2022-10-04T14:34:02.917Z,21.90
2022-10-04T14:36:54.768Z,22.00
2022-10-04T14:39:39.537Z,22.10
2022-10-04T14:42:23.828Z,22.00
2022-10-04T14:45:18.953Z,22.10
2022-10-04T14:48:12.318Z,22.10
2022-10-04T14:50:51.674Z,22.10
2022-10-04T14:53:29.138Z,22.30
2022-10-04T14:56:20.847Z,22.30
2022-10-04T14:59:00.120Z,22.40
2022-10-04T15:01:29.617Z,22.50
2022-10-04T15:04:21.866Z,22.40
2022-10-04T15:06:52.204Z,22.40
2022-10-04T15:09:45.984Z,22.30
2022-10-04T15:13:09.323Z,22.30
2022-10-04T15:15:50.239Z,22.40
2022-10-04T15:18:39.080Z,22.50
2022-10-04T15:21:21.442Z,22.60
2022-10-04T15:23:54.043Z,22.60
2022-10-04T15:27:05.007Z,22.60
2022-10-04T15:29:44.511Z,22.60
2022-10-04T15:32:19.262Z,22.40
2022-10-04T15:34:59.179Z,22.50
2022-10-04T15:37:41.070Z,22.40
2022-10-04T15:40:22.991Z,22.40
2022-10-04T15:43:02.575Z,22.30
2022-10-04T15:45:53.888Z,22.30
2022-10-04T15:48:50.618Z,22.20
2022-10-04T15:51:21.191Z,22.20
2022-10-04T15:54:05.775Z,22.10
2022-10-04T15:56:48.287Z,22.00
2022-10-04T15:59:35.456Z,21.90
2022-10-04T16:02:38.918Z,21.80
2022-10-04T16:05:24.195Z,21.70
2022-10-04T16:08:28.593Z,21.60
2022-10-04T16:11:36.623Z,21.40
2022-10-04T16:14:33.263Z,21.20
2022-10-04T16:17:28.556Z,21.10
2022-10-04T16:20:28.941Z,20.90
2022-10-04T16:23:24.219Z,20.70
2022-10-04T16:25:53.234Z,20.50
2022-10-04T16:28:36.596Z,20.20
2022-10-04T16:31:22.728Z,20.00
2022-10-04T16:34:01.913Z,19.60
2022-10-04T16:36:47.535Z,19.30
2022-10-04T16:39:51.592Z,18.90
2022-10-04T16:42:23.810Z,18.50
2022-10-04T16:44:55.907Z,18.20
2022-10-04T16:47:28.333Z,17.90
2022-10-04T16:49:59.394Z,17.50
2022-10-04T16:52:48.189Z,17.20
2022-10-04T16:55:44.279Z,16.80
2022-10-04T16:58:44.933Z,16.50
2022-10-04T17:01:56.684Z,16.10
2022-10-04T17:04:55.433Z,15.80
2022-10-04T17:07:37.190Z,15.40
2022-10-04T17:10:21.127Z,15.10
2022-10-04T17:12:56.579Z,14.80
2022-10-04T17:15:34.859Z,14.50
2022-10-04T17:18:19.510Z,14.30
2022-10-04T17:20:55.462Z,14.10
2022-10-04T17:23:40.125Z,13.90
2022-10-04T17:26:20.191Z,13.70
2022-10-04T17:28:56.681Z,13.50
2022-10-04T17:31:33.523Z,13.30
2022-10-04T17:34:12.701Z,13.10
2022-10-04T17:36:43.741Z,12.90
2022-10-04T17:39:44.376Z,12.70
2022-10-04T17:42:31.915Z,12.50
2022-10-04T17:45:23.368Z,12.40
2022-10-04T17:48:19.011Z,12.20
2022-10-04T17:51:13.514Z,12.10
2022-10-04T17:54:04.009Z,11.90
2022-10-04T17:56:37.016Z,11.80
2022-10-04T17:59:13.066Z,11.60
2022-10-04T18:01:46.364Z,11.50
2022-10-04T18:04:20.887Z,11.40
2022-10-04T18:06:55.567Z,11.30
2022-10-04T18:09:30.135Z,11.20
2022-10-04T18:12:03.077Z,11.10
2022-10-04T18:14:59.366Z,11.00
2022-10-04T18:17:33.082Z,10.90
2022-10-04T18:20:27.726Z,10.80
2022-10-04T18:23:02.080Z,10.70
2022-10-04T18:25:33.839Z,10.70
2022-10-04T18:28:06.822Z,10.70
2022-10-04T18:30:53.825Z,10.60
2022-10-04T18:33:26.681Z,10.50
2022-10-04T18:36:04.408Z,10.50
2022-10-04T18:38:34.972Z,10.50
2022-10-04T18:41:13.067Z,10.40
2022-10-04T18:43:50.681Z,10.30
2022-10-04T18:46:22.068Z,10.20
2022-10-04T18:48:55.725Z,10.10
2022-10-04T18:51:29.618Z,10.10
2022-10-04T18:54:21.364Z,10.00
2022-10-04T18:56:57.186Z,10.00
2022-10-04T18:59:56.617Z,9.90
2022-10-04T19:02:36.236Z,9.80
2022-10-04T19:05:14.144Z,9.70
2022-10-04T19:07:51.419Z,9.70
2022-10-04T19:10:25.956Z,9.60
2022-10-04T19:13:10.852Z,9.50
2022-10-04T19:16:13.030Z,9.40
2022-10-04T19:19:07.800Z,9.40
2022-10-04T19:21:46.421Z,9.30
2022-10-04T19:24:45.122Z,9.20
2022-10-04T19:27:23.502Z,9.10
2022-10-04T19:30:03.405Z,9.00
2022-10-04T19:32:39.700Z,9.00
2022-10-04T19:35:22.139Z,8.90
2022-10-04T19:37:58.099Z,8.90
2022-10-04T19:40:35.925Z,8.80
2022-10-04T19:43:08.890Z,8.80
2022-10-04T19:45:45.552Z,8.70
2022-10-04T19:48:23.478Z,8.70
2022-10-04T19:51:02.214Z,8.70
2022-10-04T19:53:38.008Z,8.60
2022-10-04T19:56:15.627Z,8.70
2022-10-04T19:58:45.481Z,8.60
2022-10-04T20:01:14.414Z,8.60
2022-10-04T20:03:42.611Z,8.60
2022-10-04T20:06:21.324Z,8.50
2022-10-04T20:09:01.496Z,8.40
2022-10-04T20:11:49.537Z,8.30
2022-10-04T20:14:44.915Z,8.10
2022-10-04T20:17:32.832Z,8.00
2022-10-04T20:20:01.226Z,7.90
2022-10-04T20:22:54.991Z,7.80
2022-10-04T20:26:00.458Z,7.70
2022-10-04T20:28:41.581Z,7.70
2022-10-04T20:31:10.802Z,7.70
2022-10-04T20:33:49.942Z,7.70
2022-10-04T20:36:52.957Z,7.70
2022-10-04T20:40:00.813Z,7.70
2022-10-04T20:42:35.932Z,7.70
2022-10-04T20:45:22.357Z,7.60
2022-10-04T20:47:51.651Z,7.70
2022-10-04T20:50:31.368Z,7.70
2022-10-04T20:53:01.988Z,7.70
2022-10-04T20:55:32.227Z,7.70
2022-10-04T20:58:03.948Z,7.70
2022-10-04T21:00:35.038Z,7.70
2022-10-04T21:03:13.761Z,7.70
2022-10-04T21:05:42.222Z,7.60
2022-10-04T21:08:14.407Z,7.60
2022-10-04T21:11:24.132Z,7.60
2022-10-04T21:14:25.667Z,7.60
2022-10-04T21:16:59.917Z,7.50
2022-10-04T21:19:45.832Z,7.50
2022-10-04T21:22:39.860Z,7.40
2022-10-04T21:25:32.872Z,7.40
2022-10-04T21:28:23.526Z,7.40
2022-10-04T21:30:53.021Z,7.30
2022-10-04T21:33:20.933Z,7.30
2022-10-04T21:35:51.353Z,7.30
2022-10-04T21:38:19.331Z,7.30
2022-10-04T21:40:47.323Z,7.30
2022-10-04T21:43:15.315Z,7.30
2022-10-04T21:45:43.487Z,7.30
2022-10-04T21:48:12.849Z,7.30
2022-10-04T21:50:40.986Z,7.30
2022-10-04T21:53:09.332Z,7.30
2022-10-04T21:55:37.340Z,7.20
2022-10-04T21:58:05.261Z,7.20
2022-10-04T22:00:34.123Z,7.20
2022-10-04T22:03:04.465Z,7.20
2022-10-04T22:05:33.749Z,7.10
2022-10-04T22:08:02.634Z,7.20
2022-10-04T22:10:31.086Z,7.10
2022-10-04T22:12:59.003Z,7.10
2022-10-04T22:15:28.493Z,7.10
2022-10-04T22:17:57.152Z,7.00
2022-10-04T22:20:25.891Z,7.00
2022-10-04T22:22:57.478Z,6.90
2022-10-04T22:25:27.239Z,6.90
2022-10-04T22:27:55.465Z,6.90
2022-10-04T22:30:26.697Z,6.90
2022-10-04T22:32:57.029Z,6.80
2022-10-04T22:35:25.551Z,6.80
2022-10-04T22:37:55.075Z,6.80
2022-10-04T22:40:25.082Z,6.80
2022-10-04T22:42:54.639Z,6.80
2022-10-04T22:45:25.201Z,6.80
2022-10-04T22:47:54.375Z,6.80
2022-10-04T22:50:31.708Z,6.70
2022-10-04T22:53:05.568Z,6.70
2022-10-04T22:55:33.626Z,6.70
2022-10-04T22:58:02.834Z,6.70
2022-10-04T23:00:30.812Z,6.70
2022-10-04T23:02:58.930Z,6.60
2022-10-04T23:05:28.644Z,6.60
2022-10-04T23:07:56.650Z,6.60
2022-10-04T23:10:25.973Z,6.60
2022-10-04T23:12:53.992Z,6.50
2022-10-04T23:15:22.167Z,6.50
2022-10-04T23:17:55.456Z,6.50
2022-10-04T23:20:24.239Z,6.40
2022-10-04T23:22:54.397Z,6.40
2022-10-04T23:25:28.061Z,6.40
2022-10-04T23:27:59.413Z,6.40
2022-10-04T23:30:27.955Z,6.40
2022-10-04T23:33:02.079Z,6.40
2022-10-04T23:35:33.498Z,6.40
2022-10-04T23:38:03.673Z,6.30
2022-10-04T23:40:32.970Z,6.30
2022-10-04T23:43:03.684Z,6.30
2022-10-04T23:45:31.791Z,6.20
2022-10-04T23:48:01.371Z,6.20
2022-10-04T23:50:32.754Z,6.10
2022-10-04T23:53:04.555Z,6.10
2022-10-04T23:55:36.249Z,6.10
2022-10-04T23:58:13.548Z,6.00
